Time;durP1;ratioP1;P1;durP2;ratioP2;P2;SDS_P1;SDS_P2;PMS_P1;PMS_P2;Temp;Humidity;BMP_temperature;BMP_pressure;BME280_temperature;BME280_humidity;BME280_pressure;Samples;Min_cycle;Max_cycle;Signal;HPM_P1;HPM_P2
2023/05/24 00:00:27;;;;;;;11.70;6.93;;;;;;;18.98;67.40;98899.28;4327057;33;33567;-93
2023/05/24 00:02:56;;;;;;;10.15;6.72;;;;;;;19.29;66.24;98897.59;4309841;33;34108;-90
2023/05/24 00:05:24;;;;;;;11.18;7.00;;;;;;;19.29;66.13;98889.69;4329930;33;33919;-91
2023/05/24 00:07:51;;;;;;;11.12;6.82;;;;;;;19.53;65.24;98892.56;4328657;33;33855;-90
2023/05/24 00:10:19;;;;;;;11.12;7.37;;;;;;;19.60;64.78;98880.97;4327911;33;33777;-90
2023/05/24 00:12:46;;;;;;;9.48;6.80;;;;;;;19.41;65.36;98878.00;4327745;33;33952;-91
2023/05/24 00:15:14;;;;;;;11.35;7.28;;;;;;;19.29;65.77;98879.19;4325629;33;33849;-89
2023/05/24 00:17:42;;;;;;;9.88;6.93;;;;;;;19.23;65.80;98881.97;4328497;33;33709;-91
2023/05/24 00:20:11;;;;;;;12.25;7.53;;;;;;;18.98;66.90;98880.87;4315619;33;34212;-91
2023/05/24 00:22:40;;;;;;;10.57;7.25;;;;;;;19.09;66.81;98877.09;4311459;33;33946;-93
2023/05/24 00:25:07;;;;;;;12.35;7.12;;;;;;;19.09;66.70;98879.72;4327538;33;34955;-90
2023/05/24 00:27:36;;;;;;;11.93;7.05;;;;;;;18.98;67.43;98880.87;4314599;33;33583;-93
2023/05/24 00:30:05;;;;;;;11.63;7.57;;;;;;;18.85;68.09;98882.97;4328008;33;33579;-91
2023/05/24 00:32:33;;;;;;;12.13;7.62;;;;;;;18.86;67.90;98875.03;4313905;33;33889;-92
2023/05/24 00:35:02;;;;;;;10.80;7.90;;;;;;;18.79;68.24;98875.22;4315309;33;34415;-92
2023/05/24 00:37:31;;;;;;;11.00;7.65;;;;;;;19.09;67.09;98876.22;4327830;33;34734;-91
2023/05/24 00:39:58;;;;;;;10.77;8.15;;;;;;;19.20;66.46;98874.16;4328470;33;33494;-93
2023/05/24 00:42:26;;;;;;;10.13;6.93;;;;;;;19.39;65.58;98864.87;4314188;33;34125;-89
2023/05/24 00:44:53;;;;;;;9.77;6.82;;;;;;;19.44;65.45;98867.41;4312189;33;34207;-90
2023/05/24 00:47:21;;;;;;;10.70;6.90;;;;;;;19.43;65.41;98866.53;4325940;33;34191;-91
2023/05/24 00:49:49;;;;;;;8.98;6.62;;;;;;;19.50;65.06;98872.47;4327819;33;33464;-89
2023/05/24 00:52:16;;;;;;;10.05;6.85;;;;;;;19.47;65.11;98861.16;4318458;33;33888;-89
2023/05/24 00:54:44;;;;;;;11.70;8.13;;;;;;;19.38;65.64;98867.56;4327385;33;34155;-89
2023/05/24 00:57:14;;;;;;;12.77;7.75;;;;;;;19.33;66.00;98870.31;4315650;33;34257;-89
2023/05/24 00:59:44;;;;;;;12.35;8.85;;;;;;;19.21;66.64;98881.16;4317359;33;33341;-91
2023/05/24 01:02:11;;;;;;;14.93;9.55;;;;;;;19.05;67.47;98874.56;4316880;33;33881;-89
2023/05/24 01:04:39;;;;;;;14.65;9.65;;;;;;;18.98;67.87;98879.16;4316608;33;34093;-89
2023/05/24 01:07:45;;;;;;;12.73;9.07;;;;;;;18.98;67.86;98883.50;4329404;33;34316;-90
2023/05/24 01:10:24;;;;;;;14.02;10.43;;;;;;;19.01;67.95;98884.28;4324510;33;33627;-92
2023/05/24 01:13:12;;;;;;;14.23;9.18;;;;;;;18.88;68.58;98883.75;4328169;33;34582;-90
2023/05/24 01:15:45;;;;;;;16.58;11.38;;;;;;;18.80;68.41;98874.34;4329676;33;34905;-92
2023/05/24 01:18:16;;;;;;;13.60;10.90;;;;;;;18.76;69.01;98876.19;4330389;33;35076;-92
2023/05/24 01:20:45;;;;;;;14.60;11.80;;;;;;;18.66;69.60;98875.53;4317661;33;33071;-89
2023/05/24 01:23:18;;;;;;;15.90;11.70;;;;;;;18.76;69.23;98870.94;4331786;33;34889;-90
2023/05/24 01:26:10;;;;;;;17.33;12.00;;;;;;;18.61;70.13;98873.91;4317341;33;33826;-89
2023/05/24 01:28:38;;;;;;;14.90;10.80;;;;;;;18.34;71.23;98865.81;4319832;33;34948;-91
2023/05/24 01:31:06;;;;;;;15.82;10.82;;;;;;;18.74;69.60;98864.84;4314173;33;33522;-92
2023/05/24 01:33:33;;;;;;;16.77;11.50;;;;;;;18.79;69.12;98865.63;4310391;33;34789;-90
2023/05/24 01:36:01;;;;;;;16.55;11.35;;;;;;;18.53;70.19;98865.37;4316912;33;33635;-91
2023/05/24 01:38:28;;;;;;;19.45;12.48;;;;;;;18.43;70.51;98862.09;4329538;33;34908;-93
2023/05/24 01:41:00;;;;;;;16.60;12.02;;;;;;;18.39;70.85;98865.69;4326162;33;33708;-91
2023/05/24 01:43:38;;;;;;;18.10;11.98;;;;;;;18.25;71.76;98858.13;4312013;33;33695;-90
2023/05/24 01:46:21;;;;;;;19.20;12.32;;;;;;;18.57;70.10;98853.91;4314187;33;33645;-90
2023/05/24 01:48:55;;;;;;;13.30;10.95;;;;;;;18.63;69.96;98856.34;4314078;33;34263;-93
2023/05/24 01:51:24;;;;;;;16.00;10.07;;;;;;;18.77;69.50;98858.66;4330450;33;34275;-93
2023/05/24 01:53:53;;;;;;;16.00;10.35;;;;;;;18.92;68.64;98855.66;4316419;33;34725;-90
2023/05/24 01:56:21;;;;;;;14.50;9.50;;;;;;;19.05;68.19;98853.56;4311683;33;34027;-91
2023/05/24 01:58:50;;;;;;;14.87;10.15;;;;;;;19.10;67.69;98854.31;4315750;33;34749;-90
2023/05/24 02:01:18;;;;;;;15.00;10.23;;;;;;;19.34;66.73;98850.16;4316652;33;33476;-91
2023/05/24 02:03:46;;;;;;;14.10;10.38;;;;;;;19.36;66.31;98851.84;4316325;33;32461;-90
2023/05/24 02:06:14;;;;;;;14.85;9.23;;;;;;;19.47;65.50;98850.66;4330516;33;34265;-91
2023/05/24 02:08:41;;;;;;;13.95;9.07;;;;;;;19.53;64.77;98856.59;4302961;33;32592;-91
2023/05/24 02:11:09;;;;;;;12.02;8.57;;;;;;;19.56;64.73;98853.03;4326645;33;33794;-91
2023/05/24 02:13:38;;;;;;;14.05;9.05;;;;;;;19.61;64.67;98848.50;4330394;33;33759;-90
2023/05/24 02:16:05;;;;;;;14.30;11.48;;;;;;;19.53;64.48;98855.75;4313925;33;33348;-91
2023/05/24 02:18:33;;;;;;;14.40;11.23;;;;;;;19.18;65.85;98860.22;4330085;33;35037;-91
2023/05/24 02:21:01;;;;;;;16.52;12.40;;;;;;;18.79;67.75;98857.75;4316278;33;32699;-90
2023/05/24 02:23:29;;;;;;;22.13;12.43;;;;;;;18.96;67.17;98854.66;4329003;33;33720;-89
2023/05/24 02:25:58;;;;;;;21.12;14.48;;;;;;;18.61;68.25;98852.91;4327918;33;33686;-90
2023/05/24 02:28:27;;;;;;;18.02;14.38;;;;;;;18.50;69.38;98861.03;4329028;33;35166;-89
2023/05/24 02:30:54;;;;;;;21.37;15.27;;;;;;;18.80;67.98;98850.72;4326299;33;33626;-91
2023/05/24 02:33:24;;;;;;;25.15;16.42;;;;;;;18.53;68.91;98847.84;4315593;33;32327;-90
2023/05/24 02:35:51;;;;;;;22.15;16.87;;;;;;;18.28;70.65;98849.34;4330063;33;33307;-90
2023/05/24 02:38:19;;;;;;;22.13;17.52;;;;;;;18.37;70.01;98844.75;4325684;33;34895;-90
2023/05/24 02:40:47;;;;;;;25.05;18.48;;;;;;;18.78;68.57;98845.50;4329400;33;34450;-91
2023/05/24 02:43:14;;;;;;;24.95;17.75;;;;;;;18.48;69.62;98842.69;4314780;33;34476;-93
2023/05/24 02:45:42;;;;;;;25.67;18.90;;;;;;;18.60;69.39;98845.91;4326878;33;33955;-91
2023/05/24 02:48:10;;;;;;;25.95;19.02;;;;;;;18.57;69.88;98839.00;4316332;33;34409;-91
2023/05/24 02:50:37;;;;;;;25.70;17.90;;;;;;;18.23;71.22;98833.69;4329887;33;33713;-92
2023/05/24 02:53:05;;;;;;;31.20;20.20;;;;;;;18.19;71.25;98832.91;4315862;33;32124;-90
2023/05/24 02:55:33;;;;;;;26.67;19.52;;;;;;;18.28;71.32;98834.44;4321849;33;34859;-91
2023/05/24 02:58:01;;;;;;;23.80;18.08;;;;;;;17.60;73.98;98840.28;4287166;33;32733;-90
2023/05/24 03:00:29;;;;;;;25.27;19.02;;;;;;;17.99;72.23;98838.62;4312504;33;33566;-89
2023/05/24 03:03:01;;;;;;;25.08;18.95;;;;;;;17.85;72.93;98837.19;4321867;33;34436;-91
2023/05/24 03:05:29;;;;;;;25.23;19.50;;;;;;;18.10;71.81;98840.13;4310977;33;33546;-91
2023/05/24 03:07:57;;;;;;;23.27;17.80;;;;;;;18.35;70.90;98843.03;4311859;33;34976;-94
2023/05/24 03:10:24;;;;;;;23.52;17.65;;;;;;;18.39;70.68;98837.69;4312217;33;33592;-91
2023/05/24 03:12:52;;;;;;;24.60;18.67;;;;;;;18.20;70.96;98841.63;4312364;33;33955;-92
2023/05/24 03:15:20;;;;;;;25.15;18.25;;;;;;;18.46;69.95;98849.75;4328232;33;33674;-89
2023/05/24 03:17:47;;;;;;;20.77;16.58;;;;;;;18.58;69.41;98852.97;4319154;33;33747;-90
2023/05/24 03:20:17;;;;;;;21.77;16.67;;;;;;;18.62;69.19;98852.88;4303399;33;33971;-89
2023/05/24 03:22:44;;;;;;;24.20;16.92;;;;;;;18.64;68.81;98848.44;4317094;33;34831;-89
2023/05/24 03:25:13;;;;;;;20.25;16.12;;;;;;;18.60;68.98;98853.78;4307955;33;32735;-90
2023/05/24 03:27:41;;;;;;;23.42;17.25;;;;;;;18.64;69.08;98858.97;4303433;33;34233;-91
2023/05/24 03:30:09;;;;;;;24.83;17.65;;;;;;;18.63;69.13;98857.22;4315677;33;34531;-90
2023/05/24 03:32:38;;;;;;;23.92;17.60;;;;;;;18.69;68.86;98854.44;4313198;33;34066;-91
2023/05/24 03:35:06;;;;;;;24.67;17.65;;;;;;;18.34;71.29;98854.44;4309995;33;33654;-89
2023/05/24 03:37:34;;;;;;;27.00;18.37;;;;;;;18.39;71.17;98857.81;4317010;33;33742;-93
2023/05/24 03:40:04;;;;;;;26.77;18.95;;;;;;;18.77;70.17;98864.78;4326382;33;33562;-89
2023/05/24 03:42:32;;;;;;;30.10;19.77;;;;;;;19.02;69.10;98864.16;4300079;33;33708;-91
2023/05/24 03:44:59;;;;;;;26.48;20.58;;;;;;;18.90;69.87;98860.97;4315862;33;34160;-90
2023/05/24 03:47:28;;;;;;;27.25;21.42;;;;;;;18.75;70.89;98863.09;4318017;33;34241;-91
2023/05/24 03:49:55;;;;;;;29.52;20.83;;;;;;;18.41;72.47;98862.12;4321897;33;33457;-90
2023/05/24 03:52:23;;;;;;;28.17;20.80;;;;;;;18.76;71.33;98873.56;4304006;33;34840;-91
2023/05/24 03:54:51;;;;;;;28.77;19.87;;;;;;;18.69;71.69;98877.22;4317255;33;34941;-90
2023/05/24 03:57:18;;;;;;;28.52;21.08;;;;;;;18.87;71.38;98876.78;4320781;33;33835;-91
2023/05/24 03:59:46;;;;;;;27.27;20.25;;;;;;;18.62;72.67;98878.25;4311398;33;33885;-92
2023/05/24 04:02:14;;;;;;;27.40;20.65;;;;;;;18.88;71.60;98883.75;4319634;33;33570;-90
2023/05/24 04:04:41;;;;;;;28.23;19.90;;;;;;;18.66;72.20;98883.41;4287236;33;32674;-89
2023/05/24 04:07:10;;;;;;;27.27;19.67;;;;;;;18.60;72.56;98878.31;4314074;33;34044;-89
2023/05/24 04:09:39;;;;;;;25.35;20.27;;;;;;;18.39;73.90;98879.66;4301482;33;31833;-92
2023/05/24 04:12:07;;;;;;;23.42;18.98;;;;;;;18.31;74.42;98881.63;4315358;33;33975;-90
2023/05/24 04:14:34;;;;;;;26.08;19.45;;;;;;;18.71;72.94;98889.44;4315373;33;32667;-91
2023/05/24 04:17:03;;;;;;;26.50;18.48;;;;;;;18.65;73.25;98886.06;4319219;33;34999;-92
2023/05/24 04:19:31;;;;;;;24.77;19.30;;;;;;;18.53;73.62;98881.13;4324283;33;33881;-89
2023/05/24 04:21:59;;;;;;;25.65;19.40;;;;;;;18.48;74.12;98879.44;4320136;33;33836;-93
2023/05/24 04:24:26;;;;;;;22.45;17.17;;;;;;;18.44;74.31;98888.28;4314583;33;34556;-89
2023/05/24 04:26:54;;;;;;;24.92;18.17;;;;;;;18.22;75.71;98893.19;4322175;33;33812;-89
2023/05/24 04:29:25;;;;;;;22.48;17.70;;;;;;;18.19;75.92;98897.66;4322627;33;32485;-89
2023/05/24 04:31:52;;;;;;;22.95;17.85;;;;;;;17.95;77.25;98897.25;4323372;33;33833;-90
2023/05/24 04:34:21;;;;;;;27.25;18.87;;;;;;;18.01;77.19;98898.91;4330943;33;35632;-87
2023/05/24 04:36:51;;;;;;;24.33;18.33;;;;;;;18.24;76.20;98903.66;4317239;33;34205;-88
2023/05/24 04:39:18;;;;;;;23.77;17.77;;;;;;;18.23;76.36;98907.16;4289615;33;33638;-91
2023/05/24 04:41:49;;;;;;;23.80;18.15;;;;;;;18.34;76.15;98907.78;4307376;33;34743;-91
2023/05/24 04:44:17;;;;;;;23.48;18.08;;;;;;;17.81;79.10;98915.06;4309614;33;35063;-89
2023/05/24 04:46:45;;;;;;;29.15;17.27;;;;;;;17.97;78.10;98899.88;4311984;33;34913;-92
2023/05/24 04:49:13;;;;;;;24.33;17.48;;;;;;;18.14;77.35;98902.13;4303743;33;33297;-90
2023/05/24 04:51:40;;;;;;;22.73;18.50;;;;;;;18.48;76.05;98899.59;4316855;33;33851;-93
2023/05/24 04:54:08;;;;;;;25.45;18.37;;;;;;;18.10;77.67;98906.56;4304099;33;35041;-90
2023/05/24 04:56:39;;;;;;;24.08;17.40;;;;;;;17.99;78.39;98905.94;4330074;33;35029;-92
2023/05/24 04:59:07;;;;;;;22.75;17.98;;;;;;;18.40;76.58;98918.13;4318427;33;34329;-91
2023/05/24 05:01:35;;;;;;;19.80;16.00;;;;;;;18.48;76.37;98903.06;4329295;33;34788;-91
2023/05/24 05:04:06;;;;;;;24.48;18.12;;;;;;;18.39;76.49;98900.66;4331335;33;34034;-90
2023/05/24 05:06:37;;;;;;;24.05;17.27;;;;;;;18.33;76.86;98905.19;4330178;33;34059;-91
2023/05/24 05:09:08;;;;;;;21.77;18.10;;;;;;;18.64;74.94;98910.59;4331829;33;33562;-90
2023/05/24 05:11:36;;;;;;;23.87;17.67;;;;;;;17.84;79.13;98919.37;4330796;33;33930;-90
2023/05/24 05:14:03;;;;;;;23.30;18.17;;;;;;;18.03;78.54;98914.59;4317606;33;34293;-89
2023/05/24 05:16:31;;;;;;;23.92;18.37;;;;;;;18.12;77.87;98911.78;4330761;33;34303;-91
2023/05/24 05:19:00;;;;;;;24.65;18.42;;;;;;;18.01;78.85;98924.28;4331065;33;34584;-91
2023/05/24 05:21:28;;;;;;;27.75;18.52;;;;;;;18.32;76.80;98920.06;4317470;33;33592;-91
2023/05/24 05:23:55;;;;;;;22.33;18.23;;;;;;;18.54;76.08;98916.97;4331312;33;33953;-92
2023/05/24 05:26:25;;;;;;;22.92;18.00;;;;;;;18.43;76.49;98918.06;4331083;33;34265;-91
2023/05/24 05:28:56;;;;;;;21.65;17.52;;;;;;;18.33;76.75;98921.78;4330646;33;33468;-89
2023/05/24 05:31:24;;;;;;;21.85;17.20;;;;;;;18.47;76.06;98927.59;4331360;33;34890;-89
2023/05/24 05:33:51;;;;;;;21.12;16.20;;;;;;;18.81;75.13;98929.47;4331703;33;34261;-96
2023/05/24 05:36:19;;;;;;;20.60;16.25;;;;;;;19.11;73.95;98932.22;4331435;33;33693;-93
2023/05/24 05:38:46;;;;;;;21.33;16.33;;;;;;;18.97;73.14;98927.31;4323301;33;34842;-94
2023/05/24 05:41:14;;;;;;;22.70;16.45;;;;;;;18.71;74.57;98930.56;4324840;33;34782;-96
2023/05/24 05:43:41;;;;;;;21.87;16.65;;;;;;;18.90;73.90;98941.50;4331775;33;34968;-96
2023/05/24 05:46:10;;;;;;;21.73;15.85;;;;;;;19.00;73.19;98934.25;4318504;33;32769;-96
2023/05/24 05:48:37;;;;;;;20.52;16.27;;;;;;;19.24;72.56;98938.88;4331528;33;34041;-96
2023/05/24 05:51:05;;;;;;;19.67;15.63;;;;;;;19.51;72.00;98941.69;4317850;33;34395;-96
2023/05/24 05:53:33;;;;;;;19.42;15.98;;;;;;;19.25;72.13;98953.78;4331446;33;33799;-93
2023/05/24 05:56:00;;;;;;;20.12;15.93;;;;;;;19.22;71.54;98940.69;4330739;33;34235;-90
2023/05/24 05:58:28;;;;;;;22.10;16.08;;;;;;;18.83;74.40;98947.81;4331400;33;34601;-89
2023/05/24 06:00:56;;;;;;;20.62;14.98;;;;;;;19.01;73.43;98944.72;4317588;33;33605;-89
2023/05/24 06:03:23;;;;;;;20.50;15.00;;;;;;;19.30;71.53;98951.88;4330523;33;33699;-89
2023/05/24 06:05:51;;;;;;;18.55;13.95;;;;;;;19.24;71.49;98945.91;4330965;33;34298;-90
2023/05/24 06:08:18;;;;;;;17.45;14.43;;;;;;;19.53;70.19;98950.41;4330922;33;34458;-91
2023/05/24 06:10:46;;;;;;;17.90;13.85;;;;;;;19.56;69.99;98956.44;4330590;33;34026;-90
2023/05/24 06:13:13;;;;;;;16.10;13.57;;;;;;;19.29;71.21;98955.41;4330732;33;34253;-89
2023/05/24 06:15:41;;;;;;;19.95;14.38;;;;;;;19.55;70.54;98953.88;4326466;33;35020;-94
2023/05/24 06:18:09;;;;;;;20.65;14.27;;;;;;;19.82;68.60;98950.50;4329580;33;34582;-92
2023/05/24 06:20:37;;;;;;;19.08;13.90;;;;;;;19.86;69.31;98954.78;4330012;33;33498;-94
2023/05/24 06:23:04;;;;;;;18.30;12.52;;;;;;;20.10;68.32;98958.44;4331295;33;33930;-93
2023/05/24 06:25:33;;;;;;;16.55;13.60;;;;;;;20.17;67.57;98952.09;4330844;33;34000;-90
2023/05/24 06:28:00;;;;;;;16.50;12.65;;;;;;;20.23;66.71;98958.97;4330758;33;33765;-92
2023/05/24 06:30:28;;;;;;;16.33;11.43;;;;;;;20.21;66.64;98959.91;4330719;33;35235;-92
2023/05/24 06:32:56;;;;;;;17.37;11.98;;;;;;;20.78;64.44;98956.44;4328786;33;34989;-87
2023/05/24 06:35:23;;;;;;;18.65;12.23;;;;;;;20.19;66.42;98957.31;4331590;33;34946;-88
2023/05/24 06:37:51;;;;;;;16.23;12.23;;;;;;;20.26;66.25;98958.84;4317508;33;33809;-89
2023/05/24 06:40:18;;;;;;;19.90;13.80;;;;;;;19.82;68.19;98963.66;4341286;33;34908;-89
2023/05/24 06:42:46;;;;;;;15.63;11.75;;;;;;;20.16;67.46;98965.31;4324528;33;33567;-90
2023/05/24 06:45:14;;;;;;;16.17;12.30;;;;;;;20.80;64.91;98958.13;4329507;33;35329;-89
2023/05/24 06:47:42;;;;;;;15.30;11.45;;;;;;;20.51;65.05;98959.03;4329606;33;33845;-92
2023/05/24 06:50:10;;;;;;;15.82;10.63;;;;;;;21.03;63.71;98957.37;4330862;33;33685;-88
2023/05/24 06:52:37;;;;;;;16.00;10.80;;;;;;;21.45;61.85;98964.75;4330113;33;35073;-90
2023/05/24 06:55:05;;;;;;;16.00;11.27;;;;;;;21.16;62.47;98976.25;4314657;33;34247;-90
2023/05/24 06:57:32;;;;;;;14.48;11.35;;;;;;;20.68;62.95;98976.91;4315981;33;33572;-91
2023/05/24 07:00:00;;;;;;;17.58;11.45;;;;;;;20.61;63.83;98978.91;4314744;33;33479;-90
2023/05/24 07:02:28;;;;;;;15.52;11.85;;;;;;;20.75;63.33;98977.59;4315433;33;33740;-91
2023/05/24 07:04:57;;;;;;;16.25;11.32;;;;;;;20.52;63.68;98983.59;4314461;33;33935;-91
2023/05/24 07:07:24;;;;;;;17.05;11.77;;;;;;;20.27;64.00;98997.47;4316032;33;33555;-91
2023/05/24 07:09:52;;;;;;;16.77;12.05;;;;;;;20.61;63.81;98986.81;4315201;33;34887;-92
2023/05/24 07:12:19;;;;;;;18.15;12.55;;;;;;;20.68;63.95;98987.44;4315860;33;33871;-90
2023/05/24 07:14:47;;;;;;;18.55;12.25;;;;;;;20.50;63.57;98993.31;4301512;33;34353;-92
2023/05/24 07:17:15;;;;;;;17.25;12.48;;;;;;;20.54;64.94;99000.22;4315284;33;33299;-89
2023/05/24 07:19:42;;;;;;;16.70;11.98;;;;;;;20.51;64.60;99005.56;4314395;33;34154;-90
2023/05/24 07:22:10;;;;;;;18.00;12.43;;;;;;;20.29;64.39;98994.78;4315745;33;34700;-92
2023/05/24 07:24:38;;;;;;;17.50;12.43;;;;;;;19.93;65.94;99008.94;4315916;33;33816;-90
2023/05/24 07:27:08;;;;;;;17.80;11.80;;;;;;;20.22;65.05;99014.28;4312338;33;33649;-89
2023/05/24 07:29:36;;;;;;;15.73;12.25;;;;;;;20.62;63.18;99004.31;4315735;33;34748;-91
2023/05/24 07:32:06;;;;;;;18.30;12.60;;;;;;;20.61;64.10;99007.03;4315487;33;34879;-92
2023/05/24 07:34:34;;;;;;;15.80;12.65;;;;;;;20.51;64.86;99000.31;4315896;33;34270;-92
2023/05/24 07:37:01;;;;;;;15.80;12.20;;;;;;;20.76;64.84;99001.28;4302366;33;33760;-92
2023/05/24 07:39:29;;;;;;;19.00;11.85;;;;;;;20.67;64.33;99006.81;4315584;33;33940;-93
2023/05/24 07:41:57;;;;;;;14.02;10.38;;;;;;;20.72;63.92;99007.56;4314510;33;34588;-91
2023/05/24 07:44:24;;;;;;;14.93;11.32;;;;;;;20.54;63.92;99005.47;4314248;33;33852;-92
2023/05/24 07:46:54;;;;;;;16.37;11.45;;;;;;;20.97;62.89;98999.72;4314292;33;33413;-92
2023/05/24 07:49:22;;;;;;;14.13;10.27;;;;;;;21.71;60.54;99000.78;4314628;33;33922;-92
2023/05/24 07:51:50;;;;;;;14.10;10.50;;;;;;;21.36;62.01;99002.84;4315753;33;33719;-93
2023/05/24 07:54:18;;;;;;;16.33;10.40;;;;;;;21.75;60.24;99004.19;4314558;33;33634;-93
2023/05/24 07:56:46;;;;;;;14.95;11.48;;;;;;;21.83;60.30;99017.97;4314250;33;33714;-92
2023/05/24 07:59:14;;;;;;;15.07;10.98;;;;;;;21.33;60.82;99013.50;4315626;33;34866;-91
2023/05/24 08:01:42;;;;;;;15.40;10.88;;;;;;;21.69;59.40;99009.66;4323262;33;35052;-90
2023/05/24 08:04:10;;;;;;;15.13;11.15;;;;;;;21.47;60.37;99010.37;4317150;33;34865;-90
2023/05/24 08:06:37;;;;;;;13.13;10.25;;;;;;;21.92;59.58;99012.34;4314928;33;33753;-89
2023/05/24 08:09:07;;;;;;;13.65;10.38;;;;;;;21.58;60.29;99013.53;4317024;33;34090;-90
2023/05/24 08:11:34;;;;;;;15.98;10.27;;;;;;;21.94;58.48;99010.53;4305121;33;33920;-92
2023/05/24 08:14:02;;;;;;;13.38;10.77;;;;;;;22.37;57.95;99008.09;4316617;33;33858;-90
2023/05/24 08:16:30;;;;;;;14.23;9.70;;;;;;;22.20;57.29;99014.88;4317154;33;33643;-90
2023/05/24 08:18:58;;;;;;;13.02;9.43;;;;;;;22.62;56.96;99008.91;4314183;33;33597;-90
2023/05/24 08:21:27;;;;;;;12.88;9.43;;;;;;;22.93;55.83;99013.00;4316464;33;34056;-90
2023/05/24 08:23:55;;;;;;;13.55;9.27;;;;;;;22.31;57.04;99018.00;4316930;33;34260;-87
2023/05/24 08:26:23;;;;;;;13.20;10.45;;;;;;;22.67;56.50;99017.50;4317047;33;33795;-87
2023/05/24 08:28:51;;;;;;;11.98;8.57;;;;;;;22.60;56.19;99026.56;4316207;33;34893;-88
2023/05/24 08:31:18;;;;;;;12.43;8.77;;;;;;;22.52;56.57;99023.38;4304012;33;35025;-88
2023/05/24 08:33:49;;;;;;;11.82;8.02;;;;;;;22.55;57.56;99033.84;4303819;33;34187;-88
2023/05/24 08:36:17;;;;;;;12.93;9.55;;;;;;;22.98;56.36;99032.19;4320034;33;33429;-90
2023/05/24 08:38:45;;;;;;;11.35;8.05;;;;;;;22.22;56.99;99030.66;4317071;33;33652;-90
2023/05/24 08:41:15;;;;;;;11.65;7.80;;;;;;;22.72;56.37;99035.81;4316629;33;33702;-91
2023/05/24 08:43:43;;;;;;;13.65;8.25;;;;;;;22.57;57.25;99043.41;4315497;33;34303;-92
2023/05/24 08:46:11;;;;;;;9.98;6.90;;;;;;;22.77;56.83;99040.00;4316448;33;33533;-91
2023/05/24 08:48:49;;;;;;;12.32;8.02;;;;;;;22.55;56.85;99045.25;4315630;33;33940;-93
2023/05/24 08:51:17;;;;;;;11.40;7.25;;;;;;;22.44;56.12;99046.59;4315336;33;34320;-91
2023/05/24 08:53:47;;;;;;;10.25;7.18;;;;;;;22.79;55.60;99034.66;4315694;33;33856;-91
2023/05/24 08:56:16;;;;;;;14.70;7.40;;;;;;;23.46;54.35;99033.75;4315927;33;33629;-90
2023/05/24 08:58:45;;;;;;;9.88;7.40;;;;;;;23.19;53.80;99030.47;4315534;33;33927;-91
2023/05/24 09:01:15;;;;;;;10.30;7.30;;;;;;;22.87;54.58;99039.63;4315659;33;34259;-90
2023/05/24 09:03:45;;;;;;;10.23;6.87;;;;;;;23.42;53.49;99040.09;4315537;33;34696;-92
2023/05/24 09:06:15;;;;;;;10.43;7.15;;;;;;;23.00;53.90;99040.94;4316887;33;33884;-91
2023/05/24 09:08:44;;;;;;;9.75;7.25;;;;;;;23.34;55.22;99040.41;4315115;33;33736;-92
2023/05/24 09:11:13;;;;;;;12.05;7.55;;;;;;;23.09;54.05;99048.47;4315299;33;34927;-89
2023/05/24 09:13:43;;;;;;;9.32;7.10;;;;;;;23.43;52.75;99039.16;4314677;33;32488;-92
2023/05/24 09:16:11;;;;;;;9.48;6.93;;;;;;;23.51;53.30;99042.34;4315417;33;33205;-91
2023/05/24 09:18:40;;;;;;;11.70;6.97;;;;;;;23.62;53.76;99049.84;4315302;33;33682;-90
2023/05/24 09:21:09;;;;;;;9.50;6.85;;;;;;;23.51;52.74;99053.78;4310664;33;33755;-89
2023/05/24 09:23:37;;;;;;;11.02;6.62;;;;;;;23.72;51.92;99054.72;4303659;33;33898;-92
2023/05/24 09:26:08;;;;;;;9.88;6.97;;;;;;;23.44;53.19;99056.75;4316285;33;33590;-91
2023/05/24 09:28:37;;;;;;;9.52;6.95;;;;;;;23.06;53.87;99061.81;4316655;33;33963;-92
2023/05/24 09:31:05;;;;;;;12.37;6.00;;;;;;;23.39;52.79;99056.09;4315487;33;33704;-90
2023/05/24 09:33:34;;;;;;;11.50;6.12;;;;;;;23.56;53.80;99056.22;4315075;33;34930;-90
2023/05/24 09:36:04;;;;;;;9.25;6.90;;;;;;;23.55;53.51;99054.53;4314850;33;33614;-92
2023/05/24 09:38:34;;;;;;;10.23;6.57;;;;;;;23.53;53.09;99051.94;4315366;33;34203;-92
2023/05/24 09:41:07;;;;;;;9.60;6.32;;;;;;;23.51;54.20;99058.22;4316690;33;33896;-91
2023/05/24 09:43:48;;;;;;;13.95;6.40;;;;;;;24.00;51.70;99058.81;4316143;33;33950;-91
2023/05/24 09:46:17;;;;;;;9.07;5.82;;;;;;;24.43;51.65;99048.97;4316309;33;33527;-91
2023/05/24 09:48:58;;;;;;;10.57;6.05;;;;;;;24.41;50.36;99045.53;4314931;33;33514;-89
2023/05/24 09:51:26;;;;;;;9.02;6.10;;;;;;;24.22;50.94;99064.88;4314761;33;34926;-91
2023/05/24 09:54:00;;;;;;;9.48;6.95;;;;;;;23.78;52.93;99057.09;4315073;33;33709;-91
2023/05/24 09:56:28;;;;;;;9.20;6.32;;;;;;;24.15;50.57;99055.47;4329735;33;34222;-91
2023/05/24 09:58:56;;;;;;;9.73;6.68;;;;;;;23.93;50.90;99057.34;4331412;33;34057;-90
2023/05/24 10:01:25;;;;;;;9.02;6.30;;;;;;;23.77;51.34;99062.44;4330986;33;35006;-89
2023/05/24 10:03:58;;;;;;;9.77;6.28;;;;;;;24.11;51.63;99061.84;4318077;33;34995;-92
2023/05/24 10:06:26;;;;;;;9.20;6.20;;;;;;;24.07;51.81;99062.91;4317633;33;33571;-90
2023/05/24 10:08:55;;;;;;;7.85;5.68;;;;;;;24.05;51.19;99075.34;4331227;33;34084;-90
2023/05/24 10:11:23;;;;;;;8.68;5.87;;;;;;;24.42;50.67;99063.16;4330884;33;34161;-89
2023/05/24 10:13:51;;;;;;;8.60;5.53;;;;;;;24.02;51.88;99071.06;4322748;33;33913;-90
2023/05/24 10:16:18;;;;;;;8.23;5.70;;;;;;;24.37;50.29;99068.63;4317711;33;32846;-90
2023/05/24 10:18:46;;;;;;;8.57;5.72;;;;;;;24.80;47.88;99066.69;4331084;33;34025;-92
2023/05/24 10:21:13;;;;;;;8.07;5.30;;;;;;;24.64;48.26;99063.87;4330704;33;34999;-90
2023/05/24 10:23:43;;;;;;;8.23;5.60;;;;;;;24.92;48.72;99074.06;4312242;33;33948;-90
2023/05/24 10:26:11;;;;;;;7.82;5.12;;;;;;;25.41;47.16;99055.78;4329388;33;34455;-89
2023/05/24 10:28:47;;;;;;;8.02;5.40;;;;;;;25.30;48.23;99067.88;4330949;33;33682;-89
2023/05/24 10:31:23;;;;;;;9.27;5.75;;;;;;;25.02;47.17;99063.87;4329761;33;33440;-89
2023/05/24 10:33:50;;;;;;;7.65;5.43;;;;;;;25.11;45.11;99063.44;4329396;33;34359;-89
2023/05/24 10:36:19;;;;;;;10.43;5.53;;;;;;;25.14;46.51;99059.81;4329656;33;33118;-89
2023/05/24 10:38:47;;;;;;;8.30;5.50;;;;;;;24.54;48.52;99061.72;4317275;33;33955;-89
2023/05/24 10:41:16;;;;;;;9.68;5.50;;;;;;;24.80;49.32;99058.72;4304341;33;35276;-90
2023/05/24 10:43:45;;;;;;;7.60;4.78;;;;;;;25.53;48.09;99054.31;4318693;33;34455;-89
2023/05/24 10:46:33;;;;;;;7.55;5.30;;;;;;;25.77;47.04;99056.69;4329738;33;33236;-90
2023/05/24 10:49:03;;;;;;;8.68;5.53;;;;;;;25.39;45.62;99039.09;4317604;33;33657;-89
2023/05/24 10:51:37;;;;;;;9.00;5.60;;;;;;;24.80;50.19;99049.91;4324604;33;35033;-89
2023/05/24 10:54:11;;;;;;;7.53;4.90;;;;;;;25.32;46.53;99052.75;4325066;33;34240;-89
2023/05/24 10:56:41;;;;;;;8.15;5.65;;;;;;;25.13;46.39;99045.69;4308903;33;33057;-89
2023/05/24 10:59:08;;;;;;;8.00;5.50;;;;;;;25.08;46.26;99042.38;4316006;33;33887;-89
2023/05/24 11:01:36;;;;;;;7.75;5.25;;;;;;;24.89;45.16;99037.09;4302853;33;35007;-89
2023/05/24 11:04:17;;;;;;;10.57;5.45;;;;;;;25.16;46.02;99045.53;4325445;33;33682;-89
2023/05/24 11:06:54;;;;;;;7.07;4.70;;;;;;;25.01;46.93;99043.59;4299182;33;33335;-89
2023/05/24 11:09:23;;;;;;;7.28;5.20;;;;;;;25.20;46.84;99041.81;4330327;33;34639;-90
2023/05/24 11:11:59;;;;;;;8.93;4.95;;;;;;;24.69;47.79;99051.28;4316759;33;33810;-90
2023/05/24 11:14:28;;;;;;;6.90;4.43;;;;;;;25.00;46.94;99045.41;4317498;33;34236;-89
2023/05/24 11:16:57;;;;;;;7.90;4.45;;;;;;;25.12;46.70;99040.47;4330450;33;34542;-89
2023/05/24 11:19:43;;;;;;;7.25;4.65;;;;;;;24.49;48.52;99048.69;4315557;33;33700;-90
2023/05/24 11:22:13;;;;;;;8.07;4.72;;;;;;;24.48;49.50;99047.84;4304997;33;33917;-89
2023/05/24 11:24:41;;;;;;;8.80;4.65;;;;;;;24.95;47.47;99038.56;4330359;33;35180;-88
2023/05/24 11:27:10;;;;;;;6.95;4.32;;;;;;;24.96;46.33;99042.94;4330469;33;34279;-91
2023/05/24 11:29:43;;;;;;;7.45;4.37;;;;;;;24.96;47.01;99034.97;4321162;33;34051;-91